Aeroporto :
LOGIN :

Iscrizione | Disclaimer

   EN    FR    IT 

 










Sommario :    VFR   VFR Marginale   IFR   IFR Intensivo   IFR Molto Intensivo
Visibilità : 
Base nubi : 
>= 8 km
>= 3000ft
5 / 8 km
1000 / 3000 ft
1500m / 5 km
500 / 1000 ft
800 / 1500m
200 / 500 ft
< 800m
< 200 ft
Simboli :   Temporali  Nebbia  Neve Forte  Precipitazioni Forti  Vento > 20 kt
SIGMETs :   Varie  Temporali  Ghiacco  Turbolenza  Onda orograficha  Ceneri Vulcaniche






- Altitudine del aeroporto : 53 ft
- Codice IATA : LBC


EDHL - Lübeck

ULTIMO METAR :
  • 271320Z VRB05KT 9999 FEW042 20/10 Q1031

METARs OBSOLETI :
  • 271250Z VRB05KT CAVOK 21/10 Q1031
  • 271220Z 25006KT 180V340 9999 FEW044 20/09 Q1031
  • 271150Z 24006KT 190V290 9999 FEW046 20/09 Q1032
  • 271120Z 23006KT 160V320 9999 FEW046 20/08 Q1032
  • 271050Z VRB05KT CAVOK 20/08 Q1032

TAF TAF EDHL
Valido dal 27 a 12 ore il 27 a 21 ore UTC


271100Z 2712/2721 29007KT CAVOK
TEMPO 2713/2718 33012KT



MetMap, La meteo Aeronautica in un colpo d'occhio ! - Copyright ORBIFLY Dicembre 2007 - Disclaimer

ORBIFLY MET'MAP TEAM :

Programmazione e sviluppo : Alexandra Zaïnal
Concezione : Baudouin d'Aumeries
Aiuto per la programmazione : Marc-Olivier Méhu
Supporto tecnico e logistico : Manuel Goepfert
Aiuto per la traduzione : Arnaldo La Scala

Contatto : metmap@orbifly.com




FONTI E CREDITI :

   NOAA